sensor_id;sensor_type;location;lat;lon;timestamp;P1;durP1;ratioP1;P2;durP2;ratioP2
54259;SDS011;40172;53.022;7.012;2023-02-26T00:01:51;0.73;;;0.45;;
54259;SDS011;40172;53.022;7.012;2023-02-26T00:04:18;2.28;;;0.52;;
54259;SDS011;40172;53.022;7.012;2023-02-26T00:06:43;10.85;;;0.38;;
54259;SDS011;40172;53.022;7.012;2023-02-26T00:09:20;6.68;;;0.45;;
54259;SDS011;40172;53.022;7.012;2023-02-26T00:11:46;2.45;;;0.55;;
54259;SDS011;40172;53.022;7.012;2023-02-26T00:14:12;5.30;;;0.30;;
54259;SDS011;40172;53.022;7.012;2023-02-26T00:16:40;1.67;;;0.50;;
54259;SDS011;40172;53.022;7.012;2023-02-26T00:19:06;1.73;;;0.30;;
54259;SDS011;40172;53.022;7.012;2023-02-26T00:21:34;0.75;;;0.20;;
54259;SDS011;40172;53.022;7.012;2023-02-26T00:24:01;5.75;;;0.55;;
54259;SDS011;40172;53.022;7.012;2023-02-26T00:26:27;2.90;;;0.60;;
54259;SDS011;40172;53.022;7.012;2023-02-26T00:28:54;3.72;;;0.52;;
54259;SDS011;40172;53.022;7.012;2023-02-26T00:31:20;0.52;;;0.25;;
54259;SDS011;40172;53.022;7.012;2023-02-26T00:33:50;2.85;;;0.75;;
54259;SDS011;40172;53.022;7.012;2023-02-26T00:38:42;1.15;;;0.30;;
54259;SDS011;40172;53.022;7.012;2023-02-26T00:41:12;4.53;;;1.08;;
54259;SDS011;40172;53.022;7.012;2023-02-26T00:43:39;4.47;;;0.52;;
54259;SDS011;40172;53.022;7.012;2023-02-26T00:54:04;3.42;;;0.50;;
54259;SDS011;40172;53.022;7.012;2023-02-26T00:56:46;3.70;;;0.43;;
54259;SDS011;40172;53.022;7.012;2023-02-26T00:59:13;2.75;;;0.45;;
54259;SDS011;40172;53.022;7.012;2023-02-26T01:01:39;0.90;;;0.57;;
54259;SDS011;40172;53.022;7.012;2023-02-26T01:04:04;0.10;;;0.10;;
54259;SDS011;40172;53.022;7.012;2023-02-26T01:06:31;7.13;;;0.43;;
54259;SDS011;40172;53.022;7.012;2023-02-26T01:11:29;1.23;;;0.63;;
54259;SDS011;40172;53.022;7.012;2023-02-26T01:13:55;0.57;;;0.20;;
54259;SDS011;40172;53.022;7.012;2023-02-26T01:16:24;0.43;;;0.17;;
54259;SDS011;40172;53.022;7.012;2023-02-26T01:19:02;0.50;;;0.43;;
54259;SDS011;40172;53.022;7.012;2023-02-26T01:21:37;5.13;;;1.25;;
54259;SDS011;40172;53.022;7.012;2023-02-26T01:24:08;1.60;;;0.40;;
54259;SDS011;40172;53.022;7.012;2023-02-26T01:26:37;1.55;;;0.60;;
54259;SDS011;40172;53.022;7.012;2023-02-26T01:29:03;1.45;;;0.52;;
54259;SDS011;40172;53.022;7.012;2023-02-26T01:31:40;4.55;;;0.65;;
54259;SDS011;40172;53.022;7.012;2023-02-26T01:36:47;2.03;;;0.35;;
54259;SDS011;40172;53.022;7.012;2023-02-26T01:42:11;0.75;;;0.20;;
54259;SDS011;40172;53.022;7.012;2023-02-26T01:44:47;0.68;;;0.32;;
54259;SDS011;40172;53.022;7.012;2023-02-26T01:49:54;0.95;;;0.55;;
54259;SDS011;40172;53.022;7.012;2023-02-26T01:55:22;0.20;;;0.20;;
54259;SDS011;40172;53.022;7.012;2023-02-26T01:57:50;1.17;;;0.35;;
54259;SDS011;40172;53.022;7.012;2023-02-26T02:00:19;1.38;;;0.25;;
54259;SDS011;40172;53.022;7.012;2023-02-26T02:02:45;0.28;;;0.28;;
54259;SDS011;40172;53.022;7.012;2023-02-26T02:05:26;10.52;;;1.25;;
54259;SDS011;40172;53.022;7.012;2023-02-26T02:07:56;5.63;;;0.88;;
54259;SDS011;40172;53.022;7.012;2023-02-26T02:10:23;2.75;;;0.28;;
54259;SDS011;40172;53.022;7.012;2023-02-26T02:15:34;1.75;;;0.40;;
54259;SDS011;40172;53.022;7.012;2023-02-26T02:18:17;1.50;;;0.50;;
54259;SDS011;40172;53.022;7.012;2023-02-26T02:26:44;15.18;;;0.63;;
54259;SDS011;40172;53.022;7.012;2023-02-26T02:29:27;1.77;;;0.20;;
54259;SDS011;40172;53.022;7.012;2023-02-26T02:32:20;0.10;;;0.10;;
54259;SDS011;40172;53.022;7.012;2023-02-26T02:34:52;4.30;;;0.45;;
54259;SDS011;40172;53.022;7.012;2023-02-26T02:37:26;2.63;;;0.52;;
54259;SDS011;40172;53.022;7.012;2023-02-26T02:40:03;1.45;;;0.40;;
54259;SDS011;40172;53.022;7.012;2023-02-26T02:45:26;0.00;;;0.00;;
54259;SDS011;40172;53.022;7.012;2023-02-26T02:48:00;0.63;;;0.40;;
54259;SDS011;40172;53.022;7.012;2023-02-26T02:50:34;4.28;;;0.65;;
54259;SDS011;40172;53.022;7.012;2023-02-26T02:53:06;0.77;;;0.45;;
54259;SDS011;40172;53.022;7.012;2023-02-26T02:58:35;0.10;;;0.10;;
54259;SDS011;40172;53.022;7.012;2023-02-26T03:01:08;0.38;;;0.20;;
54259;SDS011;40172;53.022;7.012;2023-02-26T03:03:44;2.28;;;0.28;;
54259;SDS011;40172;53.022;7.012;2023-02-26T03:06:29;0.30;;;0.20;;
54259;SDS011;40172;53.022;7.012;2023-02-26T03:08:54;1.75;;;0.28;;
54259;SDS011;40172;53.022;7.012;2023-02-26T03:11:21;0.43;;;0.20;;
54259;SDS011;40172;53.022;7.012;2023-02-26T03:13:46;0.47;;;0.32;;
54259;SDS011;40172;53.022;7.012;2023-02-26T03:21:49;6.43;;;0.45;;
54259;SDS011;40172;53.022;7.012;2023-02-26T03:24:39;0.32;;;0.28;;
54259;SDS011;40172;53.022;7.012;2023-02-26T03:27:25;0.73;;;0.35;;
54259;SDS011;40172;53.022;7.012;2023-02-26T03:29:57;7.83;;;0.57;;
54259;SDS011;40172;53.022;7.012;2023-02-26T03:32:31;0.75;;;0.25;;
54259;SDS011;40172;53.022;7.012;2023-02-26T03:35:09;2.60;;;0.30;;
54259;SDS011;40172;53.022;7.012;2023-02-26T03:38:05;0.65;;;0.00;;
54259;SDS011;40172;53.022;7.012;2023-02-26T03:40:46;1.50;;;0.43;;
54259;SDS011;40172;53.022;7.012;2023-02-26T03:43:19;2.08;;;0.73;;
54259;SDS011;40172;53.022;7.012;2023-02-26T03:46:08;2.80;;;0.68;;
54259;SDS011;40172;53.022;7.012;2023-02-26T03:48:37;2.75;;;0.38;;
54259;SDS011;40172;53.022;7.012;2023-02-26T03:51:05;0.28;;;0.22;;
54259;SDS011;40172;53.022;7.012;2023-02-26T03:53:36;0.03;;;0.03;;
54259;SDS011;40172;53.022;7.012;2023-02-26T03:58:36;0.20;;;0.10;;
54259;SDS011;40172;53.022;7.012;2023-02-26T04:01:03;5.47;;;0.40;;
54259;SDS011;40172;53.022;7.012;2023-02-26T04:03:43;3.50;;;0.20;;
54259;SDS011;40172;53.022;7.012;2023-02-26T04:06:13;3.03;;;1.25;;
54259;SDS011;40172;53.022;7.012;2023-02-26T04:08:39;5.78;;;0.82;;
54259;SDS011;40172;53.022;7.012;2023-02-26T04:11:14;1.10;;;0.20;;
54259;SDS011;40172;53.022;7.012;2023-02-26T04:13:41;1.85;;;0.45;;
54259;SDS011;40172;53.022;7.012;2023-02-26T04:16:07;3.00;;;0.88;;
54259;SDS011;40172;53.022;7.012;2023-02-26T04:18:33;7.63;;;0.65;;
54259;SDS011;40172;53.022;7.012;2023-02-26T04:20:59;1.17;;;0.30;;
54259;SDS011;40172;53.022;7.012;2023-02-26T04:23:25;0.88;;;0.40;;
54259;SDS011;40172;53.022;7.012;2023-02-26T04:25:50;1.75;;;0.30;;
54259;SDS011;40172;53.022;7.012;2023-02-26T04:28:16;0.38;;;0.15;;
54259;SDS011;40172;53.022;7.012;2023-02-26T04:30:41;2.30;;;0.40;;
54259;SDS011;40172;53.022;7.012;2023-02-26T04:33:07;0.30;;;0.15;;
54259;SDS011;40172;53.022;7.012;2023-02-26T04:35:32;5.00;;;0.50;;
54259;SDS011;40172;53.022;7.012;2023-02-26T04:37:58;1.08;;;0.47;;
54259;SDS011;40172;53.022;7.012;2023-02-26T04:40:24;2.65;;;0.25;;
54259;SDS011;40172;53.022;7.012;2023-02-26T04:42:50;1.65;;;0.65;;
54259;SDS011;40172;53.022;7.012;2023-02-26T04:45:15;0.10;;;0.10;;
54259;SDS011;40172;53.022;7.012;2023-02-26T04:47:41;1.45;;;0.40;;
54259;SDS011;40172;53.022;7.012;2023-02-26T04:50:07;4.05;;;0.75;;
54259;SDS011;40172;53.022;7.012;2023-02-26T04:52:33;0.93;;;0.65;;
54259;SDS011;40172;53.022;7.012;2023-02-26T04:54:58;0.25;;;0.10;;
54259;SDS011;40172;53.022;7.012;2023-02-26T04:57:24;7.35;;;0.55;;
54259;SDS011;40172;53.022;7.012;2023-02-26T04:59:50;7.15;;;0.70;;
54259;SDS011;40172;53.022;7.012;2023-02-26T05:02:15;1.77;;;0.55;;
54259;SDS011;40172;53.022;7.012;2023-02-26T05:04:41;0.65;;;0.43;;
54259;SDS011;40172;53.022;7.012;2023-02-26T05:07:07;10.55;;;1.00;;
54259;SDS011;40172;53.022;7.012;2023-02-26T05:09:32;0.10;;;0.10;;
54259;SDS011;40172;53.022;7.012;2023-02-26T05:11:58;0.30;;;0.20;;
54259;SDS011;40172;53.022;7.012;2023-02-26T05:14:23;1.27;;;0.32;;
54259;SDS011;40172;53.022;7.012;2023-02-26T05:16:49;4.38;;;0.32;;
54259;SDS011;40172;53.022;7.012;2023-02-26T05:19:15;0.20;;;0.10;;
54259;SDS011;40172;53.022;7.012;2023-02-26T05:21:40;0.98;;;0.10;;
54259;SDS011;40172;53.022;7.012;2023-02-26T05:24:06;2.08;;;0.60;;
54259;SDS011;40172;53.022;7.012;2023-02-26T05:26:32;0.03;;;0.03;;
54259;SDS011;40172;53.022;7.012;2023-02-26T05:28:57;0.10;;;0.10;;
54259;SDS011;40172;53.022;7.012;2023-02-26T05:31:23;1.38;;;0.65;;
54259;SDS011;40172;53.022;7.012;2023-02-26T05:33:50;0.10;;;0.08;;
54259;SDS011;40172;53.022;7.012;2023-02-26T05:36:16;2.53;;;0.65;;
54259;SDS011;40172;53.022;7.012;2023-02-26T05:38:42;2.42;;;0.10;;
54259;SDS011;40172;53.022;7.012;2023-02-26T05:41:07;0.90;;;0.10;;
54259;SDS011;40172;53.022;7.012;2023-02-26T05:43:33;5.72;;;0.90;;
54259;SDS011;40172;53.022;7.012;2023-02-26T05:45:59;1.45;;;0.70;;
54259;SDS011;40172;53.022;7.012;2023-02-26T05:48:25;2.83;;;1.13;;
54259;SDS011;40172;53.022;7.012;2023-02-26T05:50:51;2.05;;;1.10;;
54259;SDS011;40172;53.022;7.012;2023-02-26T05:53:17;2.20;;;1.38;;
54259;SDS011;40172;53.022;7.012;2023-02-26T05:55:43;1.60;;;0.93;;
54259;SDS011;40172;53.022;7.012;2023-02-26T05:58:09;2.10;;;1.17;;
54259;SDS011;40172;53.022;7.012;2023-02-26T06:00:35;12.60;;;0.85;;
54259;SDS011;40172;53.022;7.012;2023-02-26T06:03:00;4.82;;;1.92;;
54259;SDS011;40172;53.022;7.012;2023-02-26T06:05:26;3.00;;;1.23;;
54259;SDS011;40172;53.022;7.012;2023-02-26T06:07:51;1.88;;;1.05;;
54259;SDS011;40172;53.022;7.012;2023-02-26T06:10:17;3.85;;;0.70;;
54259;SDS011;40172;53.022;7.012;2023-02-26T06:12:43;1.02;;;0.63;;
54259;SDS011;40172;53.022;7.012;2023-02-26T06:15:08;2.80;;;0.80;;
54259;SDS011;40172;53.022;7.012;2023-02-26T06:17:35;1.98;;;1.02;;
54259;SDS011;40172;53.022;7.012;2023-02-26T06:20:01;9.13;;;1.65;;
54259;SDS011;40172;53.022;7.012;2023-02-26T06:22:27;9.98;;;1.10;;
54259;SDS011;40172;53.022;7.012;2023-02-26T06:24:53;10.27;;;1.35;;
54259;SDS011;40172;53.022;7.012;2023-02-26T06:27:19;3.10;;;0.80;;
54259;SDS011;40172;53.022;7.012;2023-02-26T06:29:45;0.25;;;0.22;;
54259;SDS011;40172;53.022;7.012;2023-02-26T06:32:11;1.55;;;0.35;;
54259;SDS011;40172;53.022;7.012;2023-02-26T06:34:36;0.47;;;0.30;;
54259;SDS011;40172;53.022;7.012;2023-02-26T06:37:02;7.32;;;0.22;;
54259;SDS011;40172;53.022;7.012;2023-02-26T06:39:28;3.47;;;0.40;;
54259;SDS011;40172;53.022;7.012;2023-02-26T06:41:53;0.30;;;0.30;;
54259;SDS011;40172;53.022;7.012;2023-02-26T06:44:19;3.92;;;1.17;;
54259;SDS011;40172;53.022;7.012;2023-02-26T06:46:44;2.25;;;0.88;;
54259;SDS011;40172;53.022;7.012;2023-02-26T06:49:10;11.10;;;1.90;;
54259;SDS011;40172;53.022;7.012;2023-02-26T06:51:36;3.55;;;1.25;;
54259;SDS011;40172;53.022;7.012;2023-02-26T06:54:01;1.25;;;0.43;;
54259;SDS011;40172;53.022;7.012;2023-02-26T06:56:27;2.45;;;1.38;;
54259;SDS011;40172;53.022;7.012;2023-02-26T06:58:53;3.58;;;1.38;;
54259;SDS011;40172;53.022;7.012;2023-02-26T07:01:18;1.38;;;0.57;;
54259;SDS011;40172;53.022;7.012;2023-02-26T07:03:44;0.95;;;0.52;;
54259;SDS011;40172;53.022;7.012;2023-02-26T07:06:10;0.10;;;0.10;;
54259;SDS011;40172;53.022;7.012;2023-02-26T07:08:37;4.60;;;0.57;;
54259;SDS011;40172;53.022;7.012;2023-02-26T07:11:03;1.00;;;0.30;;
54259;SDS011;40172;53.022;7.012;2023-02-26T07:13:28;0.15;;;0.15;;
54259;SDS011;40172;53.022;7.012;2023-02-26T07:15:54;0.00;;;0.00;;
54259;SDS011;40172;53.022;7.012;2023-02-26T07:18:20;0.43;;;0.20;;
54259;SDS011;40172;53.022;7.012;2023-02-26T07:20:47;4.28;;;0.45;;
54259;SDS011;40172;53.022;7.012;2023-02-26T07:23:13;1.17;;;0.77;;
54259;SDS011;40172;53.022;7.012;2023-02-26T07:25:39;3.00;;;0.52;;
54259;SDS011;40172;53.022;7.012;2023-02-26T07:28:05;1.33;;;0.08;;
54259;SDS011;40172;53.022;7.012;2023-02-26T07:30:30;1.65;;;0.45;;
54259;SDS011;40172;53.022;7.012;2023-02-26T07:32:56;0.63;;;0.20;;
54259;SDS011;40172;53.022;7.012;2023-02-26T07:35:22;0.00;;;0.00;;
54259;SDS011;40172;53.022;7.012;2023-02-26T07:37:48;1.85;;;1.17;;
54259;SDS011;40172;53.022;7.012;2023-02-26T07:40:13;7.50;;;0.68;;
54259;SDS011;40172;53.022;7.012;2023-02-26T07:42:40;2.67;;;0.30;;
54259;SDS011;40172;53.022;7.012;2023-02-26T07:45:06;7.03;;;1.55;;
54259;SDS011;40172;53.022;7.012;2023-02-26T07:47:32;5.47;;;1.88;;
54259;SDS011;40172;53.022;7.012;2023-02-26T07:49:58;2.65;;;0.82;;
54259;SDS011;40172;53.022;7.012;2023-02-26T07:52:24;0.57;;;0.20;;
54259;SDS011;40172;53.022;7.012;2023-02-26T07:54:50;1.80;;;0.98;;
54259;SDS011;40172;53.022;7.012;2023-02-26T07:57:15;4.03;;;1.35;;
54259;SDS011;40172;53.022;7.012;2023-02-26T07:59:41;9.32;;;1.10;;
54259;SDS011;40172;53.022;7.012;2023-02-26T08:02:07;2.28;;;0.88;;
54259;SDS011;40172;53.022;7.012;2023-02-26T08:04:34;11.27;;;0.52;;
54259;SDS011;40172;53.022;7.012;2023-02-26T08:06:59;0.52;;;0.32;;
54259;SDS011;40172;53.022;7.012;2023-02-26T08:09:25;2.50;;;1.17;;
54259;SDS011;40172;53.022;7.012;2023-02-26T08:11:51;4.40;;;0.75;;
54259;SDS011;40172;53.022;7.012;2023-02-26T08:14:17;5.00;;;0.80;;
54259;SDS011;40172;53.022;7.012;2023-02-26T08:16:42;3.25;;;0.88;;
54259;SDS011;40172;53.022;7.012;2023-02-26T08:19:08;0.55;;;0.35;;
54259;SDS011;40172;53.022;7.012;2023-02-26T08:21:34;1.83;;;0.40;;
54259;SDS011;40172;53.022;7.012;2023-02-26T08:23:59;8.00;;;0.80;;
54259;SDS011;40172;53.022;7.012;2023-02-26T08:26:25;3.78;;;0.65;;
54259;SDS011;40172;53.022;7.012;2023-02-26T08:28:51;3.42;;;1.05;;
54259;SDS011;40172;53.022;7.012;2023-02-26T08:31:17;6.93;;;0.60;;
54259;SDS011;40172;53.022;7.012;2023-02-26T08:33:43;2.05;;;1.05;;
54259;SDS011;40172;53.022;7.012;2023-02-26T08:36:09;3.85;;;0.70;;
54259;SDS011;40172;53.022;7.012;2023-02-26T08:38:35;1.70;;;1.15;;
54259;SDS011;40172;53.022;7.012;2023-02-26T08:41:00;2.70;;;0.68;;
54259;SDS011;40172;53.022;7.012;2023-02-26T08:43:26;4.45;;;0.45;;
54259;SDS011;40172;53.022;7.012;2023-02-26T08:45:52;4.72;;;0.30;;
54259;SDS011;40172;53.022;7.012;2023-02-26T08:48:18;0.30;;;0.30;;
54259;SDS011;40172;53.022;7.012;2023-02-26T08:50:44;7.32;;;0.60;;
54259;SDS011;40172;53.022;7.012;2023-02-26T08:53:10;6.05;;;1.15;;
54259;SDS011;40172;53.022;7.012;2023-02-26T08:55:36;1.38;;;0.32;;
54259;SDS011;40172;53.022;7.012;2023-02-26T08:58:02;1.55;;;0.95;;
54259;SDS011;40172;53.022;7.012;2023-02-26T09:00:27;4.63;;;0.73;;
54259;SDS011;40172;53.022;7.012;2023-02-26T09:02:54;2.83;;;0.70;;
54259;SDS011;40172;53.022;7.012;2023-02-26T09:05:20;1.35;;;0.70;;
54259;SDS011;40172;53.022;7.012;2023-02-26T09:07:45;0.40;;;0.40;;
54259;SDS011;40172;53.022;7.012;2023-02-26T09:10:11;2.42;;;0.85;;
54259;SDS011;40172;53.022;7.012;2023-02-26T09:12:38;6.57;;;1.38;;
54259;SDS011;40172;53.022;7.012;2023-02-26T09:15:04;0.15;;;0.15;;
54259;SDS011;40172;53.022;7.012;2023-02-26T09:17:30;0.20;;;0.20;;
54259;SDS011;40172;53.022;7.012;2023-02-26T09:19:56;0.82;;;0.38;;
54259;SDS011;40172;53.022;7.012;2023-02-26T09:22:22;1.55;;;0.68;;
54259;SDS011;40172;53.022;7.012;2023-02-26T09:24:48;0.52;;;0.38;;
54259;SDS011;40172;53.022;7.012;2023-02-26T09:27:13;0.35;;;0.28;;
54259;SDS011;40172;53.022;7.012;2023-02-26T09:29:39;1.38;;;0.55;;
54259;SDS011;40172;53.022;7.012;2023-02-26T09:32:05;4.65;;;0.43;;
54259;SDS011;40172;53.022;7.012;2023-02-26T09:34:33;3.92;;;0.25;;
54259;SDS011;40172;53.022;7.012;2023-02-26T09:36:59;6.07;;;1.50;;
54259;SDS011;40172;53.022;7.012;2023-02-26T09:39:25;2.22;;;0.90;;
54259;SDS011;40172;53.022;7.012;2023-02-26T09:41:52;1.30;;;0.40;;
54259;SDS011;40172;53.022;7.012;2023-02-26T09:44:24;1.40;;;0.30;;
54259;SDS011;40172;53.022;7.012;2023-02-26T09:57:42;2.50;;;0.85;;
54259;SDS011;40172;53.022;7.012;2023-02-26T10:03:12;4.00;;;1.05;;
54259;SDS011;40172;53.022;7.012;2023-02-26T10:06:26;1.55;;;0.55;;
54259;SDS011;40172;53.022;7.012;2023-02-26T10:12:06;0.20;;;0.10;;
54259;SDS011;40172;53.022;7.012;2023-02-26T10:14:43;1.85;;;0.30;;
54259;SDS011;40172;53.022;7.012;2023-02-26T10:17:17;0.80;;;0.25;;
54259;SDS011;40172;53.022;7.012;2023-02-26T10:19:52;0.20;;;0.20;;
54259;SDS011;40172;53.022;7.012;2023-02-26T10:24:58;1.35;;;0.43;;
54259;SDS011;40172;53.022;7.012;2023-02-26T10:27:54;4.13;;;0.90;;
54259;SDS011;40172;53.022;7.012;2023-02-26T10:30:42;2.38;;;0.70;;
54259;SDS011;40172;53.022;7.012;2023-02-26T10:34:00;4.10;;;0.90;;
54259;SDS011;40172;53.022;7.012;2023-02-26T10:36:04;3.00;;;0.75;;
54259;SDS011;40172;53.022;7.012;2023-02-26T10:38:43;2.42;;;0.93;;
54259;SDS011;40172;53.022;7.012;2023-02-26T10:41:14;4.85;;;1.15;;
54259;SDS011;40172;53.022;7.012;2023-02-26T10:43:48;3.30;;;0.80;;
54259;SDS011;40172;53.022;7.012;2023-02-26T10:46:23;4.97;;;1.13;;
54259;SDS011;40172;53.022;7.012;2023-02-26T10:49:21;3.30;;;0.82;;
54259;SDS011;40172;53.022;7.012;2023-02-26T10:52:16;0.82;;;0.38;;
54259;SDS011;40172;53.022;7.012;2023-02-26T10:57:47;3.58;;;0.70;;
54259;SDS011;40172;53.022;7.012;2023-02-26T11:00:19;2.80;;;0.30;;
54259;SDS011;40172;53.022;7.012;2023-02-26T11:02:47;4.63;;;0.90;;
54259;SDS011;40172;53.022;7.012;2023-02-26T11:05:23;0.73;;;0.30;;
54259;SDS011;40172;53.022;7.012;2023-02-26T11:07:56;0.90;;;0.40;;
54259;SDS011;40172;53.022;7.012;2023-02-26T11:10:30;5.13;;;0.30;;
54259;SDS011;40172;53.022;7.012;2023-02-26T11:13:05;2.03;;;0.68;;
54259;SDS011;40172;53.022;7.012;2023-02-26T11:15:31;0.73;;;0.10;;
54259;SDS011;40172;53.022;7.012;2023-02-26T11:17:57;0.80;;;0.30;;
54259;SDS011;40172;53.022;7.012;2023-02-26T11:22:57;4.78;;;1.10;;
54259;SDS011;40172;53.022;7.012;2023-02-26T11:25:26;2.97;;;0.88;;
54259;SDS011;40172;53.022;7.012;2023-02-26T11:27:58;3.92;;;1.08;;
54259;SDS011;40172;53.022;7.012;2023-02-26T11:30:43;4.07;;;0.93;;
54259;SDS011;40172;53.022;7.012;2023-02-26T11:33:44;2.72;;;0.90;;
54259;SDS011;40172;53.022;7.012;2023-02-26T11:36:36;5.25;;;0.93;;
54259;SDS011;40172;53.022;7.012;2023-02-26T11:39:06;2.53;;;0.80;;
54259;SDS011;40172;53.022;7.012;2023-02-26T11:44:06;3.60;;;0.77;;
54259;SDS011;40172;53.022;7.012;2023-02-26T11:46:40;4.60;;;1.10;;
54259;SDS011;40172;53.022;7.012;2023-02-26T11:49:09;3.70;;;0.77;;
54259;SDS011;40172;53.022;7.012;2023-02-26T11:51:37;3.10;;;0.80;;
54259;SDS011;40172;53.022;7.012;2023-02-26T11:54:20;3.25;;;0.80;;
54259;SDS011;40172;53.022;7.012;2023-02-26T11:56:47;2.65;;;0.80;;
54259;SDS011;40172;53.022;7.012;2023-02-26T11:59:16;2.67;;;0.80;;
54259;SDS011;40172;53.022;7.012;2023-02-26T12:01:42;3.75;;;0.80;;
54259;SDS011;40172;53.022;7.012;2023-02-26T12:04:09;2.90;;;0.63;;
54259;SDS011;40172;53.022;7.012;2023-02-26T12:06:37;3.55;;;0.90;;
54259;SDS011;40172;53.022;7.012;2023-02-26T12:09:03;3.47;;;0.90;;
54259;SDS011;40172;53.022;7.012;2023-02-26T12:14:32;4.38;;;0.88;;
54259;SDS011;40172;53.022;7.012;2023-02-26T12:22:47;1.38;;;0.20;;
54259;SDS011;40172;53.022;7.012;2023-02-26T12:25:38;5.20;;;0.30;;
54259;SDS011;40172;53.022;7.012;2023-02-26T12:30:59;3.08;;;0.80;;
54259;SDS011;40172;53.022;7.012;2023-02-26T12:33:56;3.72;;;1.17;;
54259;SDS011;40172;53.022;7.012;2023-02-26T12:42:54;2.28;;;0.80;;
54259;SDS011;40172;53.022;7.012;2023-02-26T12:54:13;6.93;;;1.00;;
54259;SDS011;40172;53.022;7.012;2023-02-26T13:00:34;4.03;;;0.77;;
54259;SDS011;40172;53.022;7.012;2023-02-26T13:05:56;4.90;;;1.00;;
54259;SDS011;40172;53.022;7.012;2023-02-26T13:17:25;5.10;;;1.30;;
54259;SDS011;40172;53.022;7.012;2023-02-26T13:19:59;4.35;;;1.13;;
54259;SDS011;40172;53.022;7.012;2023-02-26T13:22:31;8.73;;;1.50;;
54259;SDS011;40172;53.022;7.012;2023-02-26T13:25:02;4.63;;;0.70;;
54259;SDS011;40172;53.022;7.012;2023-02-26T13:27:34;3.97;;;0.95;;
54259;SDS011;40172;53.022;7.012;2023-02-26T13:33:20;3.78;;;0.70;;
54259;SDS011;40172;53.022;7.012;2023-02-26T13:35:52;3.70;;;0.88;;
54259;SDS011;40172;53.022;7.012;2023-02-26T13:41:18;1.55;;;0.75;;
54259;SDS011;40172;53.022;7.012;2023-02-26T13:47:01;0.82;;;0.17;;
54259;SDS011;40172;53.022;7.012;2023-02-26T13:52:23;3.13;;;0.95;;
54259;SDS011;40172;53.022;7.012;2023-02-26T13:54:51;3.92;;;1.00;;
54259;SDS011;40172;53.022;7.012;2023-02-26T13:57:28;3.70;;;1.08;;
54259;SDS011;40172;53.022;7.012;2023-02-26T14:00:34;6.43;;;1.27;;
54259;SDS011;40172;53.022;7.012;2023-02-26T14:03:10;6.20;;;0.90;;
54259;SDS011;40172;53.022;7.012;2023-02-26T14:09:02;1.83;;;0.33;;
54259;SDS011;40172;53.022;7.012;2023-02-26T14:19:35;5.85;;;1.30;;
54259;SDS011;40172;53.022;7.012;2023-02-26T14:24:54;6.45;;;1.15;;
54259;SDS011;40172;53.022;7.012;2023-02-26T14:34:58;6.10;;;1.42;;
54259;SDS011;40172;53.022;7.012;2023-02-26T14:37:30;5.43;;;1.48;;
54259;SDS011;40172;53.022;7.012;2023-02-26T14:40:05;4.72;;;1.38;;
54259;SDS011;40172;53.022;7.012;2023-02-26T14:42:43;7.03;;;1.30;;
54259;SDS011;40172;53.022;7.012;2023-02-26T14:48:01;5.68;;;1.20;;
54259;SDS011;40172;53.022;7.012;2023-02-26T14:50:33;7.47;;;1.52;;
54259;SDS011;40172;53.022;7.012;2023-02-26T14:56:08;5.18;;;1.45;;
54259;SDS011;40172;53.022;7.012;2023-02-26T15:10:00;5.40;;;1.50;;
54259;SDS011;40172;53.022;7.012;2023-02-26T15:15:49;6.95;;;1.40;;
54259;SDS011;40172;53.022;7.012;2023-02-26T15:21:04;5.40;;;1.58;;
54259;SDS011;40172;53.022;7.012;2023-02-26T15:23:54;8.52;;;1.60;;
54259;SDS011;40172;53.022;7.012;2023-02-26T15:26:30;6.70;;;1.80;;
54259;SDS011;40172;53.022;7.012;2023-02-26T15:28:58;7.95;;;1.77;;
54259;SDS011;40172;53.022;7.012;2023-02-26T15:31:29;10.50;;;1.95;;
54259;SDS011;40172;53.022;7.012;2023-02-26T15:33:59;4.45;;;1.60;;
54259;SDS011;40172;53.022;7.012;2023-02-26T15:36:27;8.30;;;1.70;;
54259;SDS011;40172;53.022;7.012;2023-02-26T15:38:54;7.85;;;1.70;;
54259;SDS011;40172;53.022;7.012;2023-02-26T15:41:25;7.10;;;1.90;;
54259;SDS011;40172;53.022;7.012;2023-02-26T15:43:55;6.10;;;1.45;;
54259;SDS011;40172;53.022;7.012;2023-02-26T15:46:35;7.65;;;1.75;;
54259;SDS011;40172;53.022;7.012;2023-02-26T15:49:11;8.25;;;1.63;;
54259;SDS011;40172;53.022;7.012;2023-02-26T15:51:43;9.70;;;1.92;;
54259;SDS011;40172;53.022;7.012;2023-02-26T15:54:13;5.40;;;1.60;;
54259;SDS011;40172;53.022;7.012;2023-02-26T15:56:43;7.35;;;2.05;;
54259;SDS011;40172;53.022;7.012;2023-02-26T15:59:11;6.68;;;1.48;;
54259;SDS011;40172;53.022;7.012;2023-02-26T16:01:41;8.02;;;1.52;;
54259;SDS011;40172;53.022;7.012;2023-02-26T16:04:11;1.45;;;0.35;;
54259;SDS011;40172;53.022;7.012;2023-02-26T16:06:39;2.35;;;0.35;;
54259;SDS011;40172;53.022;7.012;2023-02-26T16:09:08;8.40;;;1.40;;
54259;SDS011;40172;53.022;7.012;2023-02-26T16:11:44;9.13;;;2.15;;
54259;SDS011;40172;53.022;7.012;2023-02-26T16:14:16;11.73;;;3.00;;
54259;SDS011;40172;53.022;7.012;2023-02-26T16:16:50;7.35;;;1.80;;
54259;SDS011;40172;53.022;7.012;2023-02-26T16:19:19;6.25;;;2.60;;
54259;SDS011;40172;53.022;7.012;2023-02-26T16:21:53;15.88;;;3.88;;
54259;SDS011;40172;53.022;7.012;2023-02-26T16:24:20;6.07;;;1.77;;
54259;SDS011;40172;53.022;7.012;2023-02-26T16:26:54;1.23;;;0.57;;
54259;SDS011;40172;53.022;7.012;2023-02-26T16:29:27;8.98;;;1.52;;
54259;SDS011;40172;53.022;7.012;2023-02-26T16:31:55;2.50;;;0.60;;
54259;SDS011;40172;53.022;7.012;2023-02-26T16:42:50;6.93;;;1.92;;
54259;SDS011;40172;53.022;7.012;2023-02-26T16:47:59;7.60;;;2.40;;
54259;SDS011;40172;53.022;7.012;2023-02-26T16:50:29;8.27;;;2.10;;
54259;SDS011;40172;53.022;7.012;2023-02-26T16:53:01;9.35;;;2.75;;
54259;SDS011;40172;53.022;7.012;2023-02-26T16:55:33;11.40;;;2.80;;
54259;SDS011;40172;53.022;7.012;2023-02-26T16:58:01;12.07;;;2.50;;
54259;SDS011;40172;53.022;7.012;2023-02-26T17:00:30;12.68;;;1.65;;
54259;SDS011;40172;53.022;7.012;2023-02-26T17:03:10;10.65;;;3.47;;
54259;SDS011;40172;53.022;7.012;2023-02-26T17:05:39;4.35;;;1.52;;
54259;SDS011;40172;53.022;7.012;2023-02-26T17:08:19;2.83;;;1.30;;
54259;SDS011;40172;53.022;7.012;2023-02-26T17:10:48;3.85;;;1.10;;
54259;SDS011;40172;53.022;7.012;2023-02-26T17:13:18;7.68;;;1.10;;
54259;SDS011;40172;53.022;7.012;2023-02-26T17:15:45;2.20;;;0.60;;
54259;SDS011;40172;53.022;7.012;2023-02-26T17:18:12;8.25;;;0.98;;
54259;SDS011;40172;53.022;7.012;2023-02-26T17:20:38;1.83;;;0.80;;
54259;SDS011;40172;53.022;7.012;2023-02-26T17:23:04;5.72;;;0.85;;
54259;SDS011;40172;53.022;7.012;2023-02-26T17:25:39;7.80;;;0.82;;
54259;SDS011;40172;53.022;7.012;2023-02-26T17:28:08;10.52;;;2.00;;
54259;SDS011;40172;53.022;7.012;2023-02-26T17:30:39;5.95;;;1.80;;
54259;SDS011;40172;53.022;7.012;2023-02-26T17:33:05;10.45;;;2.17;;
54259;SDS011;40172;53.022;7.012;2023-02-26T17:35:31;2.40;;;0.93;;
54259;SDS011;40172;53.022;7.012;2023-02-26T17:37:57;2.47;;;0.60;;
54259;SDS011;40172;53.022;7.012;2023-02-26T17:40:28;2.45;;;0.95;;
54259;SDS011;40172;53.022;7.012;2023-02-26T17:42:57;0.98;;;0.47;;
54259;SDS011;40172;53.022;7.012;2023-02-26T17:45:24;4.28;;;1.73;;
54259;SDS011;40172;53.022;7.012;2023-02-26T17:47:49;1.10;;;0.28;;
54259;SDS011;40172;53.022;7.012;2023-02-26T17:50:20;4.20;;;0.50;;
54259;SDS011;40172;53.022;7.012;2023-02-26T17:52:50;5.35;;;0.90;;
54259;SDS011;40172;53.022;7.012;2023-02-26T17:55:16;3.15;;;1.20;;
54259;SDS011;40172;53.022;7.012;2023-02-26T17:57:42;7.25;;;1.70;;
54259;SDS011;40172;53.022;7.012;2023-02-26T18:00:09;5.82;;;0.50;;
54259;SDS011;40172;53.022;7.012;2023-02-26T18:02:38;4.88;;;1.45;;
54259;SDS011;40172;53.022;7.012;2023-02-26T18:05:04;3.60;;;0.50;;
54259;SDS011;40172;53.022;7.012;2023-02-26T18:07:30;1.13;;;0.52;;
54259;SDS011;40172;53.022;7.012;2023-02-26T18:09:56;2.60;;;0.60;;